Time;durP1;ratioP1;P1;durP2;ratioP2;P2;SDS_P1;SDS_P2;PMS_P1;PMS_P2;Temp;Humidity;BMP_temperature;BMP_pressure;BME280_temperature;BME280_humidity;BME280_pressure;Samples;Min_cycle;Max_cycle;Signal;HPM_P1;HPM_P2
2021/06/14 00:02:18;;;;;;;;;;;;;;;25.17;56.23;101028.44;5040115;28;19912;-81
2021/06/14 00:05:04;;;;;;;;;;;;;;;25.20;56.01;101028.41;5039622;28;19912;-79
2021/06/14 00:07:48;;;;;;;;;;;;;;;25.26;55.42;101035.16;5044101;28;19917;-81
2021/06/14 00:10:33;;;;;;;;;;;;;;;25.32;55.39;101027.94;5056998;28;19912;-80
2021/06/14 00:13:18;;;;;;;;;;;;;;;25.32;55.36;101024.38;5039982;28;20316;-79
2021/06/14 00:16:03;;;;;;;;;;;;;;;25.45;54.34;101023.47;5043746;28;19913;-80
2021/06/14 00:18:48;;;;;;;;;;;;;;;25.43;54.28;101014.75;5057445;28;19921;-81
2021/06/14 00:21:34;;;;;;;;;;;;;;;25.37;54.99;101012.78;5046807;28;19913;-80
2021/06/14 00:24:19;;;;;;;;;;;;;;;25.33;55.12;101012.03;5020747;28;19913;-82
2021/06/14 00:27:04;;;;;;;;;;;;;;;25.37;54.28;101024.72;5030241;28;20538;-82
2021/06/14 00:29:49;;;;;;;;;;;;;;;25.30;54.44;101019.19;5020645;28;19921;-82
2021/06/14 00:32:33;;;;;;;;;;;;;;;25.33;54.97;101023.97;5042208;28;19912;-83
2021/06/14 00:35:18;;;;;;;;;;;;;;;25.39;53.65;101024.34;5057200;28;19913;-83
2021/06/14 00:38:03;;;;;;;;;;;;;;;25.41;54.76;101025.50;5045977;28;19917;-81
2021/06/14 00:40:48;;;;;;;;;;;;;;;25.45;54.64;101036.59;5059734;28;19913;-81
2021/06/14 00:43:33;;;;;;;;;;;;;;;25.44;54.41;101033.03;5042658;28;19913;-82
2021/06/14 00:46:18;;;;;;;;;;;;;;;25.48;54.45;101028.25;5055519;28;19913;-82
2021/06/14 00:49:04;;;;;;;;;;;;;;;25.48;54.25;101030.22;5059610;28;19912;-82
2021/06/14 00:51:49;;;;;;;;;;;;;;;25.49;54.18;101034.59;5042800;28;19917;-81
2021/06/14 00:54:33;;;;;;;;;;;;;;;25.47;54.04;101032.22;5039498;28;20304;-82
2021/06/14 00:57:20;;;;;;;;;;;;;;;25.48;53.93;101035.78;5060085;28;19920;-83
2021/06/14 01:00:05;;;;;;;;;;;;;;;25.41;54.12;101036.63;5044760;28;19917;-83
2021/06/14 01:02:54;;;;;;;;;;;;;;;25.34;54.18;101033.13;5030831;28;20321;-83
2021/06/14 01:06:02;;;;;;;;;;;;;;;25.26;54.48;101037.94;5045809;28;19913;-83
2021/06/14 01:08:50;;;;;;;;;;;;;;;25.29;54.24;101039.91;5020672;28;19917;-83
2021/06/14 01:11:42;;;;;;;;;;;;;;;25.26;53.54;101034.34;5008133;28;19913;-82
2021/06/14 01:14:32;;;;;;;;;;;;;;;25.28;54.18;101035.53;5027252;28;19913;-83
2021/06/14 01:17:30;;;;;;;;;;;;;;;25.27;54.08;101036.72;5042668;28;19913;-83
2021/06/14 01:20:36;;;;;;;;;;;;;;;25.33;53.86;101034.31;5031792;28;20365;-82
2021/06/14 01:23:40;;;;;;;;;;;;;;;25.26;53.39;101031.56;5054926;28;19913;-83
2021/06/14 01:26:28;;;;;;;;;;;;;;;25.25;53.91;101027.97;5039813;28;19912;-82
2021/06/14 01:29:13;;;;;;;;;;;;;;;25.24;53.56;101020.06;5043580;28;20177;-83
2021/06/14 01:32:01;;;;;;;;;;;;;;;25.25;53.80;101018.84;5019934;28;19913;-81
2021/06/14 01:34:47;;;;;;;;;;;;;;;25.20;53.31;101020.06;5037967;28;19921;-82
2021/06/14 01:37:34;;;;;;;;;;;;;;;25.24;51.60;101025.63;5060827;28;20365;-82
2021/06/14 01:40:20;;;;;;;;;;;;;;;25.28;51.99;101018.03;5041276;28;19916;-81
2021/06/14 01:43:07;;;;;;;;;;;;;;;25.26;52.20;101029.56;5039074;28;19971;-83
2021/06/14 01:45:58;;;;;;;;;;;;;;;25.26;53.29;101021.22;5041385;28;19917;-81
2021/06/14 01:48:44;;;;;;;;;;;;;;;25.29;51.82;101023.22;5026835;28;19913;-84
2021/06/14 01:51:33;;;;;;;;;;;;;;;25.21;51.29;101030.00;5058576;28;19912;-83
2021/06/14 01:54:20;;;;;;;;;;;;;;;25.20;51.20;101031.19;5039711;28;20307;-80
2021/06/14 01:57:18;;;;;;;;;;;;;;;25.16;50.30;101021.28;5037917;28;19917;-82
2021/06/14 02:00:13;;;;;;;;;;;;;;;25.00;49.48;101022.56;5037839;28;19917;-81
2021/06/14 02:03:16;;;;;;;;;;;;;;;24.79;48.89;101022.66;5040763;28;19913;-81
2021/06/14 02:06:07;;;;;;;;;;;;;;;24.52;49.13;101022.38;5023071;28;19917;-81
2021/06/14 02:08:52;;;;;;;;;;;;;;;24.35;50.09;101019.63;5055916;28;20297;-82
2021/06/14 02:11:39;;;;;;;;;;;;;;;24.21;50.29;101020.47;5025791;28;20449;-81
2021/06/14 02:14:25;;;;;;;;;;;;;;;24.15;50.32;101011.72;5024481;28;19917;-82
2021/06/14 02:17:16;;;;;;;;;;;;;;;23.93;50.66;101017.69;5040864;28;19913;-82
2021/06/14 02:20:03;;;;;;;;;;;;;;;23.98;52.48;101011.75;5039159;28;19917;-81
2021/06/14 02:22:53;;;;;;;;;;;;;;;23.93;51.49;101020.47;5058173;28;20297;-82
2021/06/14 02:25:37;;;;;;;;;;;;;;;23.84;51.91;101021.69;5039850;28;19917;-80
2021/06/14 02:28:22;;;;;;;;;;;;;;;23.83;51.17;101022.88;5024696;28;19913;-81
2021/06/14 02:31:08;;;;;;;;;;;;;;;23.80;51.20;101023.69;5042035;28;19912;-81
2021/06/14 02:33:53;;;;;;;;;;;;;;;23.70;51.36;101026.47;5054307;28;19912;-80
2021/06/14 02:36:38;;;;;;;;;;;;;;;23.54;52.08;101020.50;5024595;28;19913;-79
2021/06/14 02:39:28;;;;;;;;;;;;;;;23.16;53.32;101025.56;5022682;28;19933;-82
2021/06/14 02:42:15;;;;;;;;;;;;;;;23.28;53.93;101027.97;5026278;28;19924;-81
2021/06/14 02:45:00;;;;;;;;;;;;;;;23.21;54.00;101021.63;5053403;28;19912;-82
2021/06/14 02:47:46;;;;;;;;;;;;;;;23.28;54.36;101029.94;5041608;28;19935;-83
2021/06/14 02:50:33;;;;;;;;;;;;;;;23.23;54.37;101028.34;5055434;28;19913;-80
2021/06/14 02:53:18;;;;;;;;;;;;;;;23.21;54.45;101024.41;5039030;28;19916;-80
2021/06/14 02:56:15;;;;;;;;;;;;;;;23.27;54.36;101031.13;5027469;28;19917;-80
2021/06/14 02:59:01;;;;;;;;;;;;;;;23.33;54.43;101033.13;5029522;28;19921;-81
2021/06/14 03:01:50;;;;;;;;;;;;;;;23.30;54.63;101030.38;5038045;28;19913;-81
2021/06/14 03:04:36;;;;;;;;;;;;;;;23.22;54.74;101034.28;5023605;28;19913;-81
2021/06/14 03:07:25;;;;;;;;;;;;;;;23.32;54.54;101036.28;5054551;28;19920;-81
2021/06/14 03:10:11;;;;;;;;;;;;;;;23.38;54.67;101029.97;5052898;28;19912;-82
2021/06/14 03:12:57;;;;;;;;;;;;;;;23.42;54.24;101032.75;5041727;28;19912;-80
2021/06/14 03:15:42;;;;;;;;;;;;;;;23.40;55.09;101035.13;5053746;28;19912;-81
2021/06/14 03:18:27;;;;;;;;;;;;;;;23.34;54.00;101040.28;5037041;28;20114;-80
2021/06/14 03:21:12;;;;;;;;;;;;;;;23.49;53.81;101041.13;5056459;28;20381;-80
2021/06/14 03:23:56;;;;;;;;;;;;;;;23.65;53.84;101033.19;5054023;28;19912;-81
2021/06/14 03:26:42;;;;;;;;;;;;;;;23.71;53.20;101036.38;5038173;28;20361;-82
2021/06/14 03:29:27;;;;;;;;;;;;;;;23.75;53.29;101046.28;5056771;28;19914;-82
2021/06/14 03:32:12;;;;;;;;;;;;;;;23.78;53.08;101042.72;5055154;28;19917;-79
2021/06/14 03:34:58;;;;;;;;;;;;;;;23.81;53.77;101041.94;5038075;28;19913;-81
2021/06/14 03:37:43;;;;;;;;;;;;;;;23.88;52.01;101043.91;5058873;28;19913;-80
2021/06/14 03:40:27;;;;;;;;;;;;;;;23.86;52.84;101049.88;5058439;28;20388;-81
2021/06/14 03:43:12;;;;;;;;;;;;;;;23.85;53.37;101048.28;5059925;28;19916;-79
2021/06/14 03:45:58;;;;;;;;;;;;;;;23.95;54.09;101052.25;5050087;28;19916;-79
2021/06/14 03:48:44;;;;;;;;;;;;;;;23.96;52.93;101047.47;5079488;28;20284;-80
2021/06/14 03:51:29;;;;;;;;;;;;;;;24.00;51.65;101051.03;5036535;28;19917;-79
2021/06/14 03:54:14;;;;;;;;;;;;;;;24.02;51.49;101054.22;5020003;28;19917;-79
2021/06/14 03:56:59;;;;;;;;;;;;;;;24.15;52.02;101055.38;5024089;28;19917;-81
2021/06/14 03:59:44;;;;;;;;;;;;;;;24.25;50.06;101068.50;5027585;28;19917;-79
2021/06/14 04:02:29;;;;;;;;;;;;;;;24.35;50.71;101059.34;5055860;28;19912;-80
2021/06/14 04:05:14;;;;;;;;;;;;;;;24.41;50.08;101059.75;5080261;28;20288;-84
2021/06/14 04:08:31;;;;;;;;;;;;;;;24.42;50.08;101062.13;5062170;28;19912;-81
2021/06/14 04:11:15;;;;;;;;;;;;;;;24.47;49.31;101056.16;5051499;28;19913;-84
2021/06/14 04:14:00;;;;;;;;;;;;;;;24.51;49.45;101068.06;5051428;28;19913;-84
2021/06/14 04:16:44;;;;;;;;;;;;;;;24.55;48.96;101068.03;5057695;28;19912;-84
2021/06/14 04:19:29;;;;;;;;;;;;;;;24.61;50.04;101060.88;5081839;28;19920;-83
2021/06/14 04:22:13;;;;;;;;;;;;;;;24.60;49.39;101060.06;5050754;28;19912;-84
2021/06/14 04:24:59;;;;;;;;;;;;;;;24.67;51.44;101057.28;5048365;28;19916;-81
2021/06/14 04:27:44;;;;;;;;;;;;;;;24.80;49.66;101062.38;5060491;28;19916;-82
2021/06/14 04:30:29;;;;;;;;;;;;;;;24.90;47.83;101062.38;5077102;28;19912;-84
2021/06/14 04:33:14;;;;;;;;;;;;;;;24.94;49.30;101056.81;5056589;28;19912;-82
2021/06/14 04:35:59;;;;;;;;;;;;;;;24.97;48.46;101064.34;5039256;28;20287;-81
2021/06/14 04:38:43;;;;;;;;;;;;;;;25.02;47.68;101061.94;5057108;28;19917;-83
2021/06/14 04:41:28;;;;;;;;;;;;;;;25.02;48.13;101058.34;5049317;28;19913;-83
2021/06/14 04:44:12;;;;;;;;;;;;;;;25.00;49.10;101058.75;5046380;28;19913;-85
2021/06/14 04:46:57;;;;;;;;;;;;;;;24.99;49.01;101057.16;5044375;28;19913;-84
2021/06/14 04:49:41;;;;;;;;;;;;;;;25.10;48.01;101055.13;5039014;28;19912;-85
2021/06/14 04:52:25;;;;;;;;;;;;;;;25.07;49.32;101060.72;5040029;28;20372;-84
2021/06/14 04:55:11;;;;;;;;;;;;;;;25.16;48.26;101052.69;5050969;28;19912;-83
2021/06/14 04:57:55;;;;;;;;;;;;;;;25.21;48.09;101055.06;5059663;28;19913;-85
2021/06/14 05:00:40;;;;;;;;;;;;;;;25.25;47.99;101058.59;5054180;28;20393;-81
2021/06/14 05:03:24;;;;;;;;;;;;;;;25.40;47.73;101067.66;5061817;28;19912;-82
2021/06/14 05:06:11;;;;;;;;;;;;;;;25.39;45.87;101069.69;5039710;28;20396;-83
2021/06/14 05:08:55;;;;;;;;;;;;;;;25.45;47.42;101070.00;5046698;28;19913;-83
2021/06/14 05:11:40;;;;;;;;;;;;;;;25.49;46.73;101074.38;5044464;28;19912;-82
2021/06/14 05:14:24;;;;;;;;;;;;;;;25.46;46.70;101071.59;5034279;28;19921;-84
2021/06/14 05:17:09;;;;;;;;;;;;;;;25.43;45.94;101075.22;5046333;28;20300;-82
2021/06/14 05:19:54;;;;;;;;;;;;;;;25.38;45.46;101078.44;5072001;28;19916;-83
2021/06/14 05:22:39;;;;;;;;;;;;;;;25.37;46.03;101074.84;5039854;28;19921;-80
2021/06/14 05:25:23;;;;;;;;;;;;;;;25.21;47.08;101080.13;5035932;28;19912;-84
2021/06/14 05:28:08;;;;;;;;;;;;;;;25.14;46.98;101078.16;5051212;28;19913;-84
2021/06/14 05:30:52;;;;;;;;;;;;;;;25.06;48.43;101084.16;5062539;28;19912;-81
2021/06/14 05:33:37;;;;;;;;;;;;;;;25.06;48.29;101076.63;5054643;28;19912;-83
2021/06/14 05:36:22;;;;;;;;;;;;;;;25.04;46.85;101078.22;5044934;28;19917;-82
2021/06/14 05:39:07;;;;;;;;;;;;;;;25.12;47.30;101075.00;5067883;28;19916;-81
2021/06/14 05:41:51;;;;;;;;;;;;;;;25.20;47.93;101083.28;5075913;28;19912;-82
2021/06/14 05:44:36;;;;;;;;;;;;;;;25.25;47.56;101078.09;5058569;28;19913;-82
2021/06/14 05:47:23;;;;;;;;;;;;;;;25.28;47.10;101076.50;5062985;28;19916;-80
2021/06/14 05:50:08;;;;;;;;;;;;;;;25.17;46.53;101079.34;5076206;28;20297;-79
2021/06/14 05:52:52;;;;;;;;;;;;;;;25.25;48.01;101080.09;5058503;28;19912;-80
2021/06/14 05:55:36;;;;;;;;;;;;;;;25.29;47.82;101087.25;5062525;28;20307;-80
2021/06/14 05:58:21;;;;;;;;;;;;;;;25.33;48.03;101090.78;5060842;28;20288;-81
2021/06/14 06:01:06;;;;;;;;;;;;;;;25.34;47.56;101078.47;5063160;28;19917;-80
2021/06/14 06:03:51;;;;;;;;;;;;;;;25.23;48.38;101082.50;5055185;28;19912;-82
2021/06/14 06:06:36;;;;;;;;;;;;;;;25.28;47.59;101087.66;5056391;28;19913;-85
2021/06/14 06:09:21;;;;;;;;;;;;;;;25.45;47.58;101092.28;5054305;28;19913;-84
2021/06/14 06:12:06;;;;;;;;;;;;;;;25.43;47.38;101083.56;5036022;28;19921;-85
2021/06/14 06:14:51;;;;;;;;;;;;;;;25.56;47.63;101076.34;5018178;28;19913;-86
2021/06/14 06:17:35;;;;;;;;;;;;;;;25.64;47.43;101077.91;5034004;28;19913;-85
2021/06/14 06:20:20;;;;;;;;;;;;;;;25.64;46.71;101074.31;5036902;28;19917;-87
2021/06/14 06:23:04;;;;;;;;;;;;;;;25.69;47.28;101080.25;5035392;28;19913;-86
2021/06/14 06:25:49;;;;;;;;;;;;;;;25.83;47.12;101088.47;5034533;28;20137;-85
2021/06/14 06:28:34;;;;;;;;;;;;;;;25.88;47.37;101082.47;5017999;28;19913;-85
2021/06/14 06:31:18;;;;;;;;;;;;;;;25.92;47.55;101093.59;5035728;28;20377;-85
2021/06/14 06:34:03;;;;;;;;;;;;;;;25.77;47.68;101092.91;5033545;28;20285;-87
2021/06/14 06:36:47;;;;;;;;;;;;;;;25.81;48.04;101090.88;5032617;28;19913;-86
2021/06/14 06:39:31;;;;;;;;;;;;;;;25.82;47.90;101089.69;5035535;28;19917;-88
2021/06/14 06:42:16;;;;;;;;;;;;;;;25.81;48.56;101084.50;5020684;28;19913;-88
2021/06/14 06:45:00;;;;;;;;;;;;;;;25.94;47.12;101088.41;5018054;28;20208;-86
2021/06/14 06:47:45;;;;;;;;;;;;;;;26.04;47.55;101090.31;5021868;28;19913;-87
2021/06/14 06:50:29;;;;;;;;;;;;;;;26.04;47.79;101079.16;5034191;28;19917;-87
2021/06/14 06:53:13;;;;;;;;;;;;;;;26.06;47.82;101085.09;5032304;28;19913;-87
2021/06/14 06:55:59;;;;;;;;;;;;;;;25.99;47.98;101079.59;5037207;28;19913;-87
2021/06/14 06:58:44;;;;;;;;;;;;;;;26.05;47.37;101080.75;5034484;28;19913;-86
2021/06/14 07:01:29;;;;;;;;;;;;;;;26.04;47.96;101076.38;5032366;28;19917;-87
2021/06/14 07:04:14;;;;;;;;;;;;;;;26.12;47.93;101083.44;5033132;28;19913;-88
2021/06/14 07:06:59;;;;;;;;;;;;;;;26.05;48.05;101080.75;5034507;28;19917;-86
2021/06/14 07:09:44;;;;;;;;;;;;;;;26.22;48.80;101084.59;5035023;28;19913;-86
2021/06/14 07:12:28;;;;;;;;;;;;;;;26.30;48.71;101081.34;5041302;28;19917;-85
2021/06/14 07:15:13;;;;;;;;;;;;;;;26.29;48.21;101087.31;5039689;28;19913;-86
2021/06/14 07:17:58;;;;;;;;;;;;;;;26.19;48.37;101088.97;5046810;28;19913;-87
2021/06/14 07:20:43;;;;;;;;;;;;;;;26.21;48.66;101094.16;5062787;28;20404;-85
2021/06/14 07:23:27;;;;;;;;;;;;;;;26.22;48.64;101096.53;5049112;28;20372;-86
2021/06/14 07:26:12;;;;;;;;;;;;;;;26.23;48.36;101092.53;5040953;28;19913;-84
2021/06/14 07:28:57;;;;;;;;;;;;;;;26.38;48.55;101098.78;5061820;28;20305;-83
2021/06/14 07:31:43;;;;;;;;;;;;;;;26.38;48.36;101085.63;5049124;28;19913;-85
2021/06/14 07:34:28;;;;;;;;;;;;;;;26.36;48.31;101093.59;5068129;28;20293;-83
2021/06/14 07:37:12;;;;;;;;;;;;;;;26.44;48.54;101097.13;5047981;28;20308;-82
2021/06/14 07:39:56;;;;;;;;;;;;;;;26.53;47.75;101096.63;5056657;28;19917;-84
2021/06/14 07:42:41;;;;;;;;;;;;;;;26.51;47.42;101096.25;5047856;28;20334;-82
2021/06/14 07:45:25;;;;;;;;;;;;;;;26.46;48.07;101094.72;5037290;28;19921;-82
2021/06/14 07:48:10;;;;;;;;;;;;;;;26.48;48.04;101097.06;5061686;28;19924;-83
2021/06/14 07:50:56;;;;;;;;;;;;;;;26.40;47.65;101079.63;5057437;28;20344;-81
2021/06/14 07:53:41;;;;;;;;;;;;;;;26.73;45.65;101086.44;5046815;28;19913;-81
2021/06/14 07:56:25;;;;;;;;;;;;;;;26.97;45.95;101084.59;5044893;28;19912;-83
2021/06/14 07:59:10;;;;;;;;;;;;;;;27.15;45.31;101082.34;5059916;28;19924;-82
2021/06/14 08:01:54;;;;;;;;;;;;;;;26.82;45.49;101079.13;5058140;28;19913;-80
2021/06/14 08:04:39;;;;;;;;;;;;;;;26.92;45.59;101074.66;5055516;28;19913;-80
2021/06/14 08:07:23;;;;;;;;;;;;;;;27.21;45.98;101084.25;5055084;28;20384;-81
2021/06/14 08:10:09;;;;;;;;;;;;;;;27.27;45.22;101069.81;5052681;28;19913;-85
2021/06/14 08:12:54;;;;;;;;;;;;;;;27.38;44.25;101064.88;5062369;28;19931;-83
2021/06/14 08:15:39;;;;;;;;;;;;;;;27.55;43.69;101064.63;5060224;28;19912;-83
2021/06/14 08:27:08;;;;;;;;;;;;;;;27.42;44.21;101051.63;5056526;28;19913;-87
2021/06/14 08:29:52;;;;;;;;;;;;;;;27.50;44.53;101056.72;5048657;28;19913;-85
2021/06/14 08:32:38;;;;;;;;;;;;;;;27.58;44.17;101063.00;5047350;28;19913;-82
2021/06/14 08:35:24;;;;;;;;;;;;;;;27.56;44.15;101048.66;5055184;28;19912;-84
2021/06/14 08:38:09;;;;;;;;;;;;;;;27.53;44.38;101049.50;5062910;28;19908;-82
2021/06/14 08:40:54;;;;;;;;;;;;;;;27.56;43.82;101054.25;5063162;28;19917;-84
2021/06/14 08:43:39;;;;;;;;;;;;;;;27.57;44.15;101055.81;5044605;28;19913;-86
2021/06/14 08:46:24;;;;;;;;;;;;;;;27.51;44.89;101047.13;5033666;28;19913;-87
2021/06/14 08:49:09;;;;;;;;;;;;;;;27.73;44.22;101047.59;5047183;28;20280;-85
2021/06/14 08:51:54;;;;;;;;;;;;;;;27.68;44.62;101058.47;5061432;28;19912;-84
2021/06/14 08:54:42;;;;;;;;;;;;;;;27.80;42.61;101041.84;5055205;28;19916;-85
2021/06/14 08:57:27;;;;;;;;;;;;;;;27.83;43.42;101049.41;5061948;28;19912;-86
2021/06/14 09:00:14;;;;;;;;;;;;;;;27.80;43.51;101050.25;5046606;28;19916;-85
2021/06/14 09:02:58;;;;;;;;;;;;;;;27.34;44.82;101050.94;5060501;28;20467;-86
2021/06/14 09:05:43;;;;;;;;;;;;;;;27.90;42.77;101048.47;5043352;28;19912;-82
2021/06/14 09:08:27;;;;;;;;;;;;;;;27.99;41.16;101045.91;5046642;28;20389;-84
2021/06/14 09:11:12;;;;;;;;;;;;;;;28.22;40.61;101045.16;5055374;28;19912;-86
2021/06/14 09:13:58;;;;;;;;;;;;;;;28.31;41.28;101050.97;5057588;28;20491;-85
2021/06/14 09:16:44;;;;;;;;;;;;;;;28.30;41.07;101035.38;5048489;28;19912;-85
2021/06/14 09:19:30;;;;;;;;;;;;;;;28.37;40.38;101036.06;5059873;28;19917;-84
2021/06/14 09:22:21;;;;;;;;;;;;;;;28.45;39.00;101033.91;5068911;28;19913;-84
2021/06/14 09:25:08;;;;;;;;;;;;;;;28.43;39.18;101041.94;5053791;28;19913;-84
2021/06/14 09:27:55;;;;;;;;;;;;;;;28.37;39.13;101040.88;5057093;28;20377;-83
2021/06/14 09:30:40;;;;;;;;;;;;;;;28.42;39.29;101038.34;5041906;28;19913;-86
2021/06/14 09:33:26;;;;;;;;;;;;;;;28.56;38.10;101036.47;5040516;28;19917;-85
2021/06/14 09:36:10;;;;;;;;;;;;;;;28.31;38.32;101036.97;5030918;28;19912;-84
2021/06/14 09:39:04;;;;;;;;;;;;;;;28.55;37.52;101032.88;5060700;28;19912;-84
2021/06/14 09:41:51;;;;;;;;;;;;;;;28.58;38.11;101029.25;5032056;28;19917;-86
2021/06/14 09:44:40;;;;;;;;;;;;;;;28.80;37.92;101035.22;5054871;28;20304;-84
2021/06/14 09:47:28;;;;;;;;;;;;;;;28.76;36.81;101034.50;5052183;28;19924;-84
2021/06/14 09:50:22;;;;;;;;;;;;;;;28.64;37.67;101038.72;5035206;28;19912;-82
2021/06/14 09:53:07;;;;;;;;;;;;;;;28.77;38.42;101036.88;5067247;28;19912;-84
2021/06/14 09:55:52;;;;;;;;;;;;;;;28.63;36.82;101031.53;5067102;28;19912;-81
2021/06/14 09:58:39;;;;;;;;;;;;;;;28.70;38.08;101034.19;5039988;28;19913;-84
2021/06/14 10:01:32;;;;;;;;;;;;;;;28.94;37.58;101025.72;5060776;28;19917;-84
2021/06/14 10:04:19;;;;;;;;;;;;;;;28.90;38.38;101026.56;5042022;28;19913;-83
2021/06/14 10:07:13;;;;;;;;;;;;;;;28.79;36.62;101011.25;5024882;28;19913;-81
2021/06/14 10:09:58;;;;;;;;;;;;;;;28.76;37.86;101014.91;5033579;28;19913;-82
2021/06/14 10:12:47;;;;;;;;;;;;;;;28.95;36.62;101013.31;5033207;28;19912;-82
2021/06/14 10:15:35;;;;;;;;;;;;;;;28.82;37.02;101018.78;5045537;28;20312;-81
2021/06/14 10:18:28;;;;;;;;;;;;;;;29.04;37.50;101017.09;5036508;28;19917;-80
2021/06/14 10:21:29;;;;;;;;;;;;;;;28.86;36.73;101005.47;5029580;28;19916;-85
2021/06/14 10:24:19;;;;;;;;;;;;;;;29.03;37.09;101015.50;5041263;28;20392;-86
2021/06/14 10:27:05;;;;;;;;;;;;;;;28.98;36.79;101004.81;5053596;28;19913;-88
2021/06/14 10:29:49;;;;;;;;;;;;;;;29.13;36.10;101008.88;5034369;28;19920;-83
2021/06/14 10:32:35;;;;;;;;;;;;;;;29.30;36.32;101012.50;5041682;28;19913;-84
2021/06/14 10:35:20;;;;;;;;;;;;;;;29.14;36.27;101006.88;5045458;28;19917;-85
2021/06/14 10:38:05;;;;;;;;;;;;;;;29.29;38.39;101008.09;5041660;28;19913;-85
2021/06/14 10:40:52;;;;;;;;;;;;;;;29.18;37.89;100999.16;5060906;28;19920;-84
2021/06/14 10:43:38;;;;;;;;;;;;;;;29.13;37.61;101010.88;5027436;28;20289;-85
2021/06/14 10:46:24;;;;;;;;;;;;;;;28.99;37.64;101012.00;5051373;28;19916;-84
2021/06/14 10:49:10;;;;;;;;;;;;;;;29.06;37.82;101011.81;5039650;28;19913;-82
2021/06/14 10:51:59;;;;;;;;;;;;;;;28.91;39.34;101000.16;5047666;28;19912;-83
2021/06/14 10:54:44;;;;;;;;;;;;;;;29.16;39.12;100999.59;5042365;28;20281;-83
2021/06/14 10:57:30;;;;;;;;;;;;;;;29.40;38.57;100989.06;5052432;28;19912;-83
2021/06/14 11:00:20;;;;;;;;;;;;;;;29.22;38.21;100992.25;5061489;28;19917;-82
2021/06/14 11:03:06;;;;;;;;;;;;;;;29.30;38.51;100990.06;5049346;28;19912;-82
2021/06/14 11:05:57;;;;;;;;;;;;;;;29.36;37.88;100991.13;5042757;28;19917;-83
2021/06/14 11:08:44;;;;;;;;;;;;;;;29.51;37.30;100981.16;5054654;28;19913;-83
2021/06/14 11:11:31;;;;;;;;;;;;;;;29.52;37.86;100979.13;5033264;28;20312;-83
2021/06/14 11:14:34;;;;;;;;;;;;;;;29.46;37.96;100984.47;5050149;28;19913;-82
2021/06/14 11:17:22;;;;;;;;;;;;;;;29.33;37.02;100976.00;5033740;28;19912;-81
2021/06/14 11:20:08;;;;;;;;;;;;;;;29.25;37.75;100968.19;5055718;28;20365;-84
2021/06/14 11:22:55;;;;;;;;;;;;;;;29.19;37.69;100964.31;5040372;28;19920;-84
2021/06/14 11:25:41;;;;;;;;;;;;;;;29.32;37.04;100960.41;5037474;28;20316;-82
2021/06/14 11:28:45;;;;;;;;;;;;;;;29.45;35.97;100956.91;5052847;28;19912;-83
2021/06/14 11:31:30;;;;;;;;;;;;;;;29.37;36.59;100953.50;5035540;28;20404;-83
2021/06/14 11:34:19;;;;;;;;;;;;;;;29.28;36.72;100954.09;5052768;28;19912;-83
2021/06/14 11:37:04;;;;;;;;;;;;;;;29.35;36.24;100947.56;5042150;28;20316;-83
2021/06/14 11:39:58;;;;;;;;;;;;;;;29.68;36.99;100946.28;5045565;28;19920;-82
2021/06/14 11:42:47;;;;;;;;;;;;;;;29.71;36.48;100942.59;5023011;28;19912;-81
2021/06/14 11:45:35;;;;;;;;;;;;;;;29.39;36.81;100948.25;5027196;28;19913;-82
2021/06/14 11:48:25;;;;;;;;;;;;;;;29.50;36.29;100937.56;5036125;28;19917;-82
2021/06/14 11:51:13;;;;;;;;;;;;;;;29.76;35.02;100944.84;5041185;28;19917;-80
2021/06/14 11:53:57;;;;;;;;;;;;;;;29.79;35.64;100936.78;5033109;28;19912;-84
2021/06/14 11:56:42;;;;;;;;;;;;;;;29.86;35.60;100933.81;5035891;28;20377;-81
2021/06/14 11:59:31;;;;;;;;;;;;;;;29.95;34.19;100939.59;5031698;28;19913;-82
2021/06/14 12:02:23;;;;;;;;;;;;;;;29.71;35.26;100936.97;5046357;28;20309;-81
2021/06/14 12:05:11;;;;;;;;;;;;;;;29.50;36.28;100934.75;5027528;28;19912;-82
2021/06/14 12:07:56;;;;;;;;;;;;;;;29.94;36.17;100926.78;5050862;28;19913;-81
2021/06/14 12:10:40;;;;;;;;;;;;;;;29.76;35.64;100928.03;5056003;28;19916;-80
2021/06/14 12:13:26;;;;;;;;;;;;;;;29.02;38.72;100913.09;5054032;28;19912;-81
2021/06/14 12:16:10;;;;;;;;;;;;;;;28.86;38.38;100921.47;5053449;28;19916;-82
2021/06/14 12:19:00;;;;;;;;;;;;;;;29.67;37.09;100918.69;5043443;28;19912;-81
2021/06/14 12:21:50;;;;;;;;;;;;;;;29.64;37.10;100923.16;5040541;28;19916;-81
2021/06/14 12:24:36;;;;;;;;;;;;;;;29.80;37.43;100924.34;5036881;28;19913;-80
2021/06/14 12:27:22;;;;;;;;;;;;;;;29.65;36.95;100930.34;5038681;28;19912;-82
2021/06/14 12:30:08;;;;;;;;;;;;;;;29.62;37.17;100924.81;5035261;28;19921;-82
2021/06/14 12:32:54;;;;;;;;;;;;;;;29.61;36.64;100921.22;5037437;28;19917;-81
2021/06/14 12:35:39;;;;;;;;;;;;;;;29.94;35.95;100915.56;5018887;28;19913;-80
2021/06/14 12:38:24;;;;;;;;;;;;;;;29.66;36.83;100911.53;5034301;28;20385;-83
2021/06/14 12:41:11;;;;;;;;;;;;;;;29.84;36.85;100908.22;5049943;28;19916;-81
2021/06/14 12:43:58;;;;;;;;;;;;;;;29.75;37.16;100900.44;5034730;28;19913;-80
2021/06/14 12:46:43;;;;;;;;;;;;;;;30.19;37.16;100907.25;5034492;28;19913;-82
2021/06/14 12:49:32;;;;;;;;;;;;;;;29.90;36.80;100892.47;5029001;28;19912;-82
2021/06/14 12:52:18;;;;;;;;;;;;;;;29.63;37.83;100887.94;5049473;28;19913;-80
2021/06/14 12:55:03;;;;;;;;;;;;;;;29.84;37.68;100886.56;5052808;28;19912;-80
2021/06/14 12:57:49;;;;;;;;;;;;;;;30.04;37.64;100889.25;5028417;28;19913;-84
2021/06/14 13:00:34;;;;;;;;;;;;;;;29.67;37.53;100880.22;5038995;28;19939;-82
2021/06/14 13:03:19;;;;;;;;;;;;;;;29.84;37.45;100880.16;5032839;28;20308;-81
2021/06/14 13:06:07;;;;;;;;;;;;;;;29.91;38.05;100875.19;5044768;28;19912;-82
2021/06/14 13:08:58;;;;;;;;;;;;;;;29.31;38.44;100874.78;5056797;28;20316;-82
2021/06/14 13:11:44;;;;;;;;;;;;;;;29.44;38.20;100869.25;5061006;28;19913;-82
2021/06/14 13:14:29;;;;;;;;;;;;;;;29.65;37.62;100877.09;5037818;28;19913;-79
2021/06/14 13:17:24;;;;;;;;;;;;;;;29.89;39.05;100869.22;5034596;28;19913;-79
2021/06/14 13:20:09;;;;;;;;;;;;;;;30.04;38.10;100864.78;5051286;28;20373;-81
2021/06/14 13:22:53;;;;;;;;;;;;;;;29.71;37.82;100857.72;5052805;28;19917;-81
2021/06/14 13:25:42;;;;;;;;;;;;;;;29.63;38.23;100854.31;5049012;28;19917;-81
2021/06/14 13:28:33;;;;;;;;;;;;;;;29.71;38.46;100852.88;5049783;28;20292;-81
2021/06/14 13:31:19;;;;;;;;;;;;;;;29.58;37.93;100842.84;5047515;28;20393;-80
2021/06/14 13:36:49;;;;;;;;;;;;;;;29.96;38.78;100848.63;5047110;28;19917;-81
2021/06/14 13:39:37;;;;;;;;;;;;;;;30.04;38.61;100847.94;5017496;28;19913;-84
2021/06/14 13:42:22;;;;;;;;;;;;;;;30.01;37.40;100842.47;5038441;28;20321;-83
2021/06/14 13:45:07;;;;;;;;;;;;;;;29.32;39.16;100839.13;5062773;28;19912;-82
2021/06/14 13:47:56;;;;;;;;;;;;;;;29.52;38.54;100834.19;5038815;28;20321;-83
2021/06/14 13:50:42;;;;;;;;;;;;;;;29.40;39.12;100831.34;5039944;28;20409;-83
2021/06/14 13:53:28;;;;;;;;;;;;;;;29.32;39.80;100827.94;5041170;28;19912;-83
2021/06/14 13:56:13;;;;;;;;;;;;;;;29.40;39.44;100829.34;5062274;28;19920;-83
2021/06/14 13:58:58;;;;;;;;;;;;;;;29.33;39.30;100827.50;5042450;28;19913;-85
2021/06/14 14:01:43;;;;;;;;;;;;;;;29.51;38.71;100823.44;5056241;28;20374;-83
2021/06/14 14:04:29;;;;;;;;;;;;;;;29.45;39.93;100817.59;5032607;28;19913;-83
2021/06/14 14:07:15;;;;;;;;;;;;;;;29.69;38.04;100827.31;5032719;28;19913;-80
2021/06/14 14:10:00;;;;;;;;;;;;;;;29.73;38.72;100822.38;5052617;28;19913;-79
2021/06/14 14:12:45;;;;;;;;;;;;;;;29.30;39.28;100810.75;5038097;28;20368;-82
2021/06/14 14:15:29;;;;;;;;;;;;;;;29.68;39.04;100820.13;5034080;28;20373;-83
2021/06/14 14:18:16;;;;;;;;;;;;;;;29.67;38.74;100807.31;5033011;28;19913;-83
2021/06/14 14:21:02;;;;;;;;;;;;;;;29.66;38.68;100811.34;5028510;28;20400;-81
2021/06/14 14:23:47;;;;;;;;;;;;;;;29.67;38.93;100795.31;5063857;28;19912;-82
2021/06/14 14:26:33;;;;;;;;;;;;;;;29.45;38.73;100799.97;5044854;28;19913;-85